KMWA/MWA METAR and TAF weather

Enter ICAO airport designator
Station Type Date Time Source
KMWA METAR 2022/06/27 08:35 UTC NOAA

KMWA 270835Z AUTO 36005KT 10SM CLR 18/15 A3020 RMK AO2 T01790145


Station Type Date Time Source
KMWA Decoded METAR 2022/06/27 08:35 UTC NOAA

Marion, Williamson County Regional Airport, IL, United States (KMWA) 37-45-01N 089-00-04W
Jun 27, 2022 - 04:35 AM EDT / 2022.06.27 0835 UTC
Wind: from the N (360 degrees) at 6 MPH (5 KT):0
Visibility: 10 mile(s):0
Sky conditions: clear
Temperature: 64.2 F (17.9 C)
Dew Point: 58.1 F (14.5 C)
Relative Humidity: 80%
Pressure (altimeter): 30.2 in. Hg (1022 hPa)
ob: KMWA 270835Z AUTO 36005KT 10SM CLR 18/15 A3020 RMK AO2 T01790145
cycle: 8

Station Type Date Time Source
KMWA TAF UTC NOAA

Error!

Example: see airport list